Terminal Aerodrome Forecast
Issued by NWS

Home | Current Version | Previous Version | Text Only | Print | Product List | Glossary On
Versions: 1 2 3 4 5 6 7 8 9 10 11 12 13 14 15 16 17 18 19 20 21
000
FTUS43 KSGF 241500 AAA
TAFJLN
TAF AMD
KJLN 241503Z 2415/2512 31011KT P6SM -SNRA OVC012
     FM241700 30011KT P6SM OVC015
     FM242000 29012KT P6SM OVC025
     FM242300 26008KT P6SM SKC
     FM250100 20009KT P6SM SKC=

USA.gov is the U.S. government's official web portal to all federal, state and local government web resources and services.